createdAt,value
2018-08-25T00:01:58.813Z,14.30
2018-08-25T00:04:27.118Z,16.23
2018-08-25T00:06:55.314Z,12.93
2018-08-25T00:09:23.500Z,13.83
2018-08-25T00:11:51.823Z,12.47
2018-08-25T00:14:20.043Z,12.93
2018-08-25T00:16:48.335Z,11.60
2018-08-25T00:19:16.623Z,12.50
2018-08-25T00:21:44.814Z,10.90
2018-08-25T00:24:13.068Z,12.40
2018-08-25T00:26:41.304Z,11.80
2018-08-25T00:29:09.570Z,11.53
2018-08-25T00:31:37.735Z,11.90
2018-08-25T00:34:05.934Z,12.60
2018-08-25T00:36:34.182Z,14.47
2018-08-25T00:39:02.516Z,10.70
2018-08-25T00:41:30.628Z,13.97
2018-08-25T00:43:58.852Z,10.33
2018-08-25T00:46:27.855Z,11.77
2018-08-25T00:48:55.981Z,11.90
2018-08-25T00:51:24.739Z,11.77
2018-08-25T00:53:53.045Z,12.63
2018-08-25T00:56:21.241Z,13.03
2018-08-25T00:58:49.535Z,11.87
2018-08-25T01:01:17.802Z,11.27
2018-08-25T01:03:56.917Z,10.83
2018-08-25T01:06:25.336Z,11.83
2018-08-25T01:08:53.749Z,12.03
2018-08-25T01:11:21.856Z,11.23
2018-08-25T01:13:50.870Z,12.03
2018-08-25T01:16:19.115Z,11.03
2018-08-25T01:18:47.295Z,13.33
2018-08-25T01:21:15.455Z,13.40
2018-08-25T01:23:43.655Z,10.97
2018-08-25T01:26:11.829Z,12.03
2018-08-25T01:28:40.112Z,12.40
2018-08-25T01:31:08.387Z,14.87
2018-08-25T01:33:36.557Z,13.50
2018-08-25T01:36:04.735Z,12.40
2018-08-25T01:38:32.871Z,13.53
2018-08-25T01:41:01.045Z,13.57
2018-08-25T01:43:29.161Z,13.20
2018-08-25T01:45:57.479Z,12.87
2018-08-25T01:48:25.761Z,11.73
2018-08-25T01:50:53.939Z,12.53
2018-08-25T01:53:22.142Z,12.43
2018-08-25T01:55:50.421Z,14.83
2018-08-25T01:58:18.689Z,13.33
2018-08-25T02:00:47.868Z,12.90
2018-08-25T02:03:16.301Z,15.23
2018-08-25T02:05:44.461Z,12.90
2018-08-25T02:08:12.697Z,14.23
2018-08-25T02:10:40.809Z,12.17
2018-08-25T02:13:09.114Z,13.23
2018-08-25T02:15:37.517Z,14.07
2018-08-25T02:18:05.812Z,11.77
2018-08-25T02:20:34.024Z,13.37
2018-08-25T02:23:02.151Z,12.63
2018-08-25T02:25:30.439Z,13.13
2018-08-25T02:27:58.609Z,12.10
2018-08-25T02:30:26.754Z,12.97
2018-08-25T02:32:54.972Z,11.90
2018-08-25T02:35:23.168Z,12.50
2018-08-25T02:37:51.368Z,11.33
2018-08-25T02:40:19.585Z,12.20
2018-08-25T02:42:47.872Z,12.30
2018-08-25T02:45:16.034Z,12.17
2018-08-25T02:47:44.360Z,12.37
2018-08-25T02:50:12.628Z,11.37
2018-08-25T02:52:40.873Z,13.07
2018-08-25T02:55:09.150Z,12.17
2018-08-25T02:57:37.380Z,17.20
2018-08-25T03:00:05.653Z,13.60
2018-08-25T03:02:33.913Z,11.57
2018-08-25T03:05:02.155Z,14.73
2018-08-25T03:07:30.446Z,14.63
2018-08-25T03:09:58.653Z,12.87
2018-08-25T03:12:26.849Z,13.73
2018-08-25T03:14:55.069Z,15.27
2018-08-25T03:17:23.407Z,13.30
2018-08-25T03:19:51.703Z,13.87
2018-08-25T03:22:19.913Z,12.70
2018-08-25T03:24:48.114Z,15.80
2018-08-25T03:27:16.384Z,14.70
2018-08-25T03:29:44.654Z,15.13
2018-08-25T03:32:12.873Z,15.77
2018-08-25T03:34:41.171Z,14.53
2018-08-25T03:37:09.461Z,13.23
2018-08-25T03:39:37.639Z,17.07
2018-08-25T03:42:05.829Z,14.77
2018-08-25T03:44:33.923Z,11.50
2018-08-25T03:47:02.302Z,13.63
2018-08-25T03:49:30.486Z,15.93
2018-08-25T03:51:58.729Z,14.57
2018-08-25T03:54:26.936Z,13.07
2018-08-25T03:56:55.091Z,12.43
2018-08-25T03:59:23.331Z,11.33
2018-08-25T04:01:52.048Z,11.63
2018-08-25T04:04:20.188Z,13.17
2018-08-25T04:06:48.351Z,11.40
2018-08-25T04:09:16.568Z,10.33
2018-08-25T04:11:44.753Z,11.67
2018-08-25T04:14:13.030Z,12.03
2018-08-25T04:16:41.165Z,10.20
2018-08-25T04:19:13.136Z,10.23
2018-08-25T04:21:41.286Z,11.13
2018-08-25T04:24:09.476Z,11.13
2018-08-25T04:26:37.651Z,9.83
2018-08-25T04:29:05.925Z,9.97
2018-08-25T04:31:34.096Z,10.33
2018-08-25T04:34:02.986Z,10.33
2018-08-25T04:36:31.115Z,10.63
2018-08-25T04:38:59.363Z,10.40
2018-08-25T04:41:27.573Z,10.40
2018-08-25T04:43:55.998Z,8.73
2018-08-25T04:46:24.181Z,8.63
2018-08-25T04:48:52.430Z,10.37
2018-08-25T04:51:20.666Z,10.07
2018-08-25T04:53:48.879Z,10.27
2018-08-25T04:56:17.043Z,9.90
2018-08-25T04:58:45.333Z,10.50
2018-08-25T05:01:13.473Z,10.30
2018-08-25T05:03:41.889Z,8.53
2018-08-25T05:06:10.147Z,8.73
2018-08-25T05:08:39.067Z,9.03
2018-08-25T05:11:07.193Z,8.70
2018-08-25T05:13:35.411Z,9.30
2018-08-25T05:16:03.625Z,9.03
2018-08-25T05:18:31.741Z,10.37
2018-08-25T05:20:59.976Z,8.90
2018-08-25T05:23:28.081Z,9.43
2018-08-25T05:26:02.660Z,8.27
2018-08-25T05:28:30.845Z,8.47
2018-08-25T05:30:58.968Z,8.20
2018-08-25T05:33:27.051Z,8.83
2018-08-25T05:35:56.565Z,11.50
2018-08-25T05:38:24.733Z,10.13
2018-08-25T05:40:52.937Z,10.70
2018-08-25T05:43:21.052Z,9.00
2018-08-25T05:45:49.158Z,8.23
2018-08-25T05:48:17.420Z,8.13
2018-08-25T05:50:45.735Z,8.67
2018-08-25T05:53:13.933Z,8.13
2018-08-25T05:55:42.401Z,7.90
2018-08-25T05:58:10.668Z,7.40
2018-08-25T06:00:38.816Z,8.07
2018-08-25T06:03:07.030Z,7.23
2018-08-25T06:05:35.349Z,7.30
2018-08-25T06:08:04.451Z,7.50
2018-08-25T06:10:33.398Z,7.23
2018-08-25T06:13:01.667Z,7.03
2018-08-25T06:15:36.634Z,7.70
2018-08-25T06:18:04.897Z,6.97
2018-08-25T06:20:33.046Z,6.00
2018-08-25T06:23:01.278Z,6.50
2018-08-25T06:25:29.997Z,6.23
2018-08-25T06:27:58.298Z,8.80
2018-08-25T06:30:26.398Z,6.67
2018-08-25T06:32:54.728Z,6.07
2018-08-25T06:35:23.096Z,7.30
2018-08-25T06:37:51.251Z,8.93
2018-08-25T06:40:19.432Z,7.10
2018-08-25T06:42:47.616Z,5.87
2018-08-25T06:45:16.581Z,7.33
2018-08-25T06:47:44.871Z,6.73
2018-08-25T06:50:13.072Z,7.60
2018-08-25T06:52:41.332Z,6.47
2018-08-25T06:55:09.591Z,6.50
2018-08-25T06:57:38.402Z,8.10
2018-08-25T07:00:07.449Z,7.43
2018-08-25T07:02:35.774Z,7.37
2018-08-25T07:05:05.229Z,7.40
2018-08-25T07:07:35.283Z,9.20
2018-08-25T07:10:04.393Z,7.77
2018-08-25T07:12:32.696Z,6.70
2018-08-25T07:15:02.637Z,6.37
2018-08-25T07:17:30.896Z,6.57
2018-08-25T07:19:59.327Z,6.30
2018-08-25T07:22:27.587Z,8.43
2018-08-25T07:24:55.818Z,8.43
2018-08-25T07:27:24.907Z,5.93
2018-08-25T07:29:53.157Z,6.20
2018-08-25T07:32:21.441Z,7.83
2018-08-25T07:34:49.705Z,5.93
2018-08-25T07:37:17.917Z,5.50
2018-08-25T07:39:46.267Z,3.93
2018-08-25T07:42:15.043Z,4.50
2018-08-25T07:44:43.241Z,4.70
2018-08-25T07:47:11.556Z,4.92
2018-08-25T07:49:39.736Z,5.67
2018-08-25T07:52:07.967Z,4.30
2018-08-25T07:54:36.186Z,5.65
2018-08-25T07:57:04.498Z,5.65
2018-08-25T07:59:32.760Z,3.58
2018-08-25T08:02:01.637Z,4.15
2018-08-25T08:04:30.350Z,4.53
2018-08-25T08:06:58.644Z,4.78
2018-08-25T08:09:27.024Z,3.08
2018-08-25T08:11:55.689Z,3.08
2018-08-25T08:14:24.343Z,3.12
2018-08-25T08:16:52.554Z,4.45
2018-08-25T08:19:20.777Z,2.30
2018-08-25T08:21:49.066Z,3.17
2018-08-25T08:24:18.144Z,2.30
2018-08-25T08:26:46.326Z,3.55
2018-08-25T08:29:14.558Z,2.80
2018-08-25T08:31:42.860Z,2.27
2018-08-25T08:34:11.119Z,3.55
2018-08-25T08:36:39.330Z,3.12
2018-08-25T08:39:09.090Z,3.55
2018-08-25T08:41:37.808Z,3.02
2018-08-25T08:44:06.338Z,3.52
2018-08-25T08:46:35.900Z,3.22
2018-08-25T08:49:05.890Z,4.05
2018-08-25T08:51:35.522Z,2.15
2018-08-25T08:54:03.885Z,2.65
2018-08-25T08:56:32.200Z,3.60
2018-08-25T08:59:00.942Z,3.87
2018-08-25T09:01:29.393Z,2.83
2018-08-25T09:03:57.612Z,3.08
2018-08-25T09:06:26.101Z,3.52
2018-08-25T09:08:54.372Z,3.47
2018-08-25T09:11:23.361Z,2.77
2018-08-25T09:13:51.521Z,3.15
2018-08-25T09:16:20.243Z,1.80
2018-08-25T09:18:48.819Z,2.87
2018-08-25T09:21:17.533Z,4.65
2018-08-25T09:23:45.769Z,2.80
2018-08-25T09:26:14.095Z,3.95
2018-08-25T09:28:42.428Z,3.87
2018-08-25T09:31:10.679Z,3.85
2018-08-25T09:33:38.881Z,3.72
2018-08-25T09:36:07.041Z,3.80
2018-08-25T09:38:35.215Z,4.28
2018-08-25T09:41:03.485Z,5.67
2018-08-25T09:43:31.741Z,4.72
2018-08-25T09:46:00.652Z,4.12
2018-08-25T09:48:28.882Z,2.45
2018-08-25T09:50:57.235Z,2.83
2018-08-25T09:53:25.534Z,3.77
2018-08-25T09:55:53.668Z,4.08
2018-08-25T09:58:21.929Z,3.25
2018-08-25T10:00:55.800Z,5.10
2018-08-25T10:03:24.126Z,4.05
2018-08-25T10:05:52.342Z,6.30
2018-08-25T10:08:20.684Z,4.20
2018-08-25T10:10:48.794Z,3.15
2018-08-25T10:13:17.020Z,4.70
2018-08-25T10:15:45.228Z,2.42
2018-08-25T10:18:13.474Z,5.25
2018-08-25T10:20:41.679Z,7.00
2018-08-25T10:23:09.921Z,3.37
2018-08-25T10:25:38.140Z,3.97
2018-08-25T10:28:07.049Z,3.63
2018-08-25T10:30:35.358Z,5.17
2018-08-25T10:33:03.606Z,3.37
2018-08-25T10:35:31.950Z,2.17
2018-08-25T10:38:00.127Z,4.53
2018-08-25T10:40:28.323Z,3.53
2018-08-25T10:42:56.465Z,3.03
2018-08-25T10:45:24.689Z,4.50
2018-08-25T10:47:52.956Z,4.10
2018-08-25T10:50:28.130Z,4.37
2018-08-25T10:52:56.480Z,3.00
2018-08-25T10:55:24.703Z,3.87
2018-08-25T10:57:52.868Z,3.37
2018-08-25T11:00:21.076Z,5.33
2018-08-25T11:02:49.924Z,2.93
2018-08-25T11:05:18.098Z,3.57
2018-08-25T11:07:46.330Z,4.73
2018-08-25T11:10:14.644Z,4.13
2018-08-25T11:12:42.845Z,3.00
2018-08-25T11:15:10.987Z,5.17
2018-08-25T11:17:39.243Z,2.33
2018-08-25T11:20:07.452Z,5.60
2018-08-25T11:22:35.785Z,5.33
2018-08-25T11:25:04.112Z,5.53
2018-08-25T11:27:32.296Z,3.60
2018-08-25T11:30:00.575Z,5.80
2018-08-25T11:32:28.735Z,4.60
2018-08-25T11:34:57.034Z,3.60
2018-08-25T11:37:25.304Z,3.47
2018-08-25T11:39:53.471Z,4.53
2018-08-25T11:42:21.833Z,4.77
2018-08-25T11:44:50.357Z,4.47
2018-08-25T11:47:18.682Z,4.17
2018-08-25T11:49:47.689Z,5.40
2018-08-25T11:52:15.805Z,3.23
2018-08-25T11:54:44.347Z,6.27
2018-08-25T11:57:12.481Z,3.67
2018-08-25T11:59:40.707Z,3.87
2018-08-25T12:02:08.953Z,3.20
2018-08-25T12:04:37.062Z,4.40
2018-08-25T12:07:05.629Z,1.93
2018-08-25T12:09:33.904Z,3.37
2018-08-25T12:12:01.944Z,4.20
2018-08-25T12:14:29.956Z,3.73
2018-08-25T12:16:58.165Z,3.00
2018-08-25T12:19:26.448Z,5.47
2018-08-25T12:21:54.597Z,2.57
2018-08-25T12:24:23.053Z,2.30
2018-08-25T12:26:53.341Z,2.30
2018-08-25T12:29:21.659Z,2.57
2018-08-25T12:31:50.032Z,2.20
2018-08-25T12:34:18.262Z,2.27
2018-08-25T12:36:47.110Z,3.37
2018-08-25T12:39:15.512Z,2.73
2018-08-25T12:41:43.860Z,1.73
2018-08-25T12:44:12.104Z,3.13
2018-08-25T12:46:40.206Z,1.70
2018-08-25T12:49:08.389Z,2.10
2018-08-25T12:51:36.626Z,3.10
2018-08-25T12:54:04.978Z,3.23
2018-08-25T12:56:33.236Z,1.60
2018-08-25T12:59:08.186Z,3.00
2018-08-25T13:01:36.782Z,2.83
2018-08-25T13:04:05.055Z,2.77
2018-08-25T13:06:33.257Z,2.47
2018-08-25T13:09:02.678Z,1.73
2018-08-25T13:11:30.820Z,1.63
2018-08-25T13:13:59.043Z,2.37
2018-08-25T13:16:27.283Z,2.53
2018-08-25T13:18:55.573Z,2.73
2018-08-25T13:21:24.295Z,2.17
2018-08-25T13:23:52.501Z,2.30
2018-08-25T13:26:20.716Z,2.53
2018-08-25T13:28:49.030Z,3.30
2018-08-25T13:31:17.219Z,1.53
2018-08-25T13:33:45.459Z,1.07
2018-08-25T13:36:13.683Z,2.33
2018-08-25T13:38:41.895Z,1.63
2018-08-25T13:41:10.149Z,4.43
2018-08-25T13:43:38.386Z,1.20
2018-08-25T13:46:06.711Z,0.93
2018-08-25T13:48:34.919Z,0.70
2018-08-25T13:51:03.278Z,1.90
2018-08-25T13:53:31.372Z,1.03
2018-08-25T13:55:59.541Z,0.70
2018-08-25T13:58:27.747Z,1.47
2018-08-25T14:00:56.124Z,1.30
2018-08-25T14:03:24.892Z,1.93
2018-08-25T14:05:53.122Z,1.37
2018-08-25T14:08:22.176Z,2.00
2018-08-25T14:10:50.186Z,2.10
2018-08-25T14:13:18.365Z,1.20
2018-08-25T14:15:47.225Z,1.83
2018-08-25T14:18:15.429Z,2.23
2018-08-25T14:20:43.590Z,1.50
2018-08-25T14:23:11.927Z,1.07
2018-08-25T14:25:40.142Z,1.10
2018-08-25T14:28:08.590Z,2.23
2018-08-25T14:30:36.900Z,1.97
2018-08-25T14:33:05.244Z,2.73
2018-08-25T14:35:33.476Z,1.00
2018-08-25T14:38:01.670Z,1.43
2018-08-25T14:40:30.028Z,3.37
2018-08-25T14:42:58.298Z,1.20
2018-08-25T14:45:26.552Z,1.37
2018-08-25T14:47:54.853Z,1.60
2018-08-25T14:50:23.212Z,1.63
2018-08-25T14:52:51.404Z,1.30
2018-08-25T14:55:20.472Z,4.10
2018-08-25T14:57:48.664Z,1.37
2018-08-25T15:00:16.953Z,3.03
2018-08-25T15:02:45.855Z,2.57
2018-08-25T15:05:14.058Z,1.17
2018-08-25T15:07:42.367Z,2.17
2018-08-25T15:10:10.699Z,2.80
2018-08-25T15:12:38.956Z,0.97
2018-08-25T15:15:07.329Z,3.07
2018-08-25T15:17:35.746Z,1.30
2018-08-25T15:20:04.145Z,2.43
2018-08-25T15:22:32.395Z,1.30
2018-08-25T15:25:00.609Z,2.17
2018-08-25T15:27:30.028Z,1.57
2018-08-25T15:29:58.357Z,2.53
2018-08-25T15:32:26.629Z,1.20
2018-08-25T15:34:54.973Z,1.73
2018-08-25T15:37:23.334Z,1.30
2018-08-25T15:39:51.600Z,1.80
2018-08-25T15:42:19.833Z,1.73
2018-08-25T15:44:48.089Z,2.07
2018-08-25T15:47:16.287Z,1.20
2018-08-25T15:49:44.475Z,2.53
2018-08-25T15:52:12.867Z,3.83
2018-08-25T15:54:41.032Z,2.27
2018-08-25T15:57:09.279Z,1.00
2018-08-25T15:59:37.510Z,0.80
2018-08-25T16:02:05.776Z,1.70
2018-08-25T16:04:34.026Z,2.47
2018-08-25T16:07:02.708Z,1.47
2018-08-25T16:09:31.175Z,1.87
2018-08-25T16:11:59.571Z,1.30
2018-08-25T16:14:28.496Z,1.57
2018-08-25T16:16:56.816Z,1.40
2018-08-25T16:19:27.653Z,1.87
2018-08-25T16:21:56.016Z,1.53
2018-08-25T16:24:24.436Z,3.53
2018-08-25T16:26:52.628Z,1.73
2018-08-25T16:29:20.952Z,3.70
2018-08-25T16:31:49.104Z,1.33
2018-08-25T16:34:17.310Z,1.50
2018-08-25T16:36:45.568Z,3.93
2018-08-25T16:39:13.946Z,1.97
2018-08-25T16:41:42.080Z,1.63
2018-08-25T16:44:10.409Z,2.60
2018-08-25T16:46:38.743Z,2.13
2018-08-25T16:49:07.056Z,2.67
2018-08-25T16:51:35.854Z,1.87
2018-08-25T16:54:04.108Z,4.47
2018-08-25T16:56:32.259Z,2.47
2018-08-25T16:59:01.444Z,1.70
2018-08-25T17:01:29.829Z,3.03
2018-08-25T17:03:58.082Z,1.50
2018-08-25T17:06:26.308Z,1.53
2018-08-25T17:08:54.658Z,3.10
2018-08-25T17:11:29.623Z,1.47
2018-08-25T17:13:57.925Z,1.53
2018-08-25T17:16:26.279Z,1.80
2018-08-25T17:18:54.564Z,1.40
2018-08-25T17:21:23.102Z,1.17
2018-08-25T17:23:51.607Z,1.20
2018-08-25T17:26:20.610Z,1.50
2018-08-25T17:28:48.824Z,3.37
2018-08-25T17:31:17.109Z,2.50
2018-08-25T17:33:45.336Z,1.37
2018-08-25T17:36:14.387Z,3.17
2018-08-25T17:38:43.028Z,2.10
2018-08-25T17:41:11.188Z,1.47
2018-08-25T17:43:39.850Z,1.60
2018-08-25T17:46:08.121Z,1.57
2018-08-25T17:48:36.328Z,1.83
2018-08-25T17:51:04.665Z,1.67
2018-08-25T17:53:32.857Z,1.30
2018-08-25T17:56:01.089Z,2.13
2018-08-25T17:58:29.484Z,1.30
2018-08-25T18:00:57.674Z,3.03
2018-08-25T18:03:25.956Z,1.43
2018-08-25T18:05:54.204Z,1.63
2018-08-25T18:08:22.406Z,1.70
2018-08-25T18:10:51.232Z,1.50
2018-08-25T18:13:19.439Z,2.60
2018-08-25T18:15:47.724Z,2.60
2018-08-25T18:18:15.900Z,1.93
2018-08-25T18:20:44.302Z,2.13
2018-08-25T18:23:12.624Z,2.57
2018-08-25T18:25:40.799Z,2.10
2018-08-25T18:28:10.064Z,3.07
2018-08-25T18:30:38.317Z,2.67
2018-08-25T18:33:06.588Z,2.13
2018-08-25T18:35:34.890Z,3.10
2018-08-25T18:38:03.168Z,2.50
2018-08-25T18:40:31.338Z,2.47
2018-08-25T18:42:59.616Z,1.80
2018-08-25T18:45:27.828Z,1.70
2018-08-25T18:47:56.070Z,2.97
2018-08-25T18:50:24.540Z,2.10
2018-08-25T18:52:53.033Z,2.13
2018-08-25T18:55:21.360Z,3.10
2018-08-25T18:57:50.610Z,3.97
2018-08-25T19:00:18.971Z,2.07
2018-08-25T19:02:47.989Z,2.40
2018-08-25T19:05:17.024Z,2.37
2018-08-25T19:07:45.283Z,1.90
2018-08-25T19:10:13.513Z,2.80
2018-08-25T19:12:41.723Z,1.73
2018-08-25T19:15:10.047Z,2.10
2018-08-25T19:17:38.549Z,2.60
2018-08-25T19:20:06.923Z,2.90
2018-08-25T19:22:35.275Z,2.23
2018-08-25T19:25:03.695Z,2.10
2018-08-25T19:27:32.023Z,2.50
2018-08-25T19:30:00.272Z,2.03
2018-08-25T19:32:28.575Z,2.80
2018-08-25T19:34:56.854Z,2.83
2018-08-25T19:37:25.134Z,2.43
2018-08-25T19:39:53.494Z,3.40
2018-08-25T19:42:21.746Z,2.70
2018-08-25T19:44:49.972Z,3.60
2018-08-25T19:47:18.204Z,2.47
2018-08-25T19:49:46.397Z,2.90
2018-08-25T19:52:15.157Z,2.90
2018-08-25T19:54:44.281Z,2.97
2018-08-25T19:57:12.554Z,3.90
2018-08-25T19:59:40.888Z,3.40
2018-08-25T20:02:09.116Z,3.87
2018-08-25T20:04:37.680Z,4.33
2018-08-25T20:07:05.976Z,3.83
2018-08-25T20:09:34.267Z,3.03
2018-08-25T20:12:03.173Z,2.43
2018-08-25T20:14:31.634Z,2.10
2018-08-25T20:17:00.134Z,2.20
2018-08-25T20:19:28.803Z,3.07
2018-08-25T20:21:57.751Z,1.87
2018-08-25T20:24:26.108Z,3.07
2018-08-25T20:26:57.930Z,2.30
2018-08-25T20:29:34.720Z,2.43
2018-08-25T20:32:03.164Z,3.83
2018-08-25T20:34:31.620Z,3.40
2018-08-25T20:37:00.362Z,2.43
2018-08-25T20:39:28.659Z,2.80
2018-08-25T20:41:57.027Z,2.90
2018-08-25T20:44:25.301Z,2.50
2018-08-25T20:46:53.792Z,3.83
2018-08-25T20:49:22.299Z,5.53
2018-08-25T20:51:51.013Z,3.23
2018-08-25T20:54:20.283Z,3.07
2018-08-25T20:56:48.559Z,3.13
2018-08-25T20:59:16.830Z,2.73
2018-08-25T21:01:45.025Z,3.27
2018-08-25T21:04:13.267Z,2.70
2018-08-25T21:06:41.768Z,3.20
2018-08-25T21:09:10.730Z,3.63
2018-08-25T21:11:39.052Z,2.93
2018-08-25T21:14:07.520Z,2.60
2018-08-25T21:16:35.835Z,2.70
2018-08-25T21:19:04.148Z,2.93
2018-08-25T21:21:32.482Z,3.27
2018-08-25T21:24:00.801Z,3.20
2018-08-25T21:26:28.975Z,3.40
2018-08-25T21:28:57.371Z,2.50
2018-08-25T21:31:25.611Z,3.57
2018-08-25T21:33:53.849Z,4.53
2018-08-25T21:36:22.098Z,3.93
2018-08-25T21:38:51.023Z,4.00
2018-08-25T21:41:19.231Z,3.33
2018-08-25T21:43:47.474Z,3.10
2018-08-25T21:46:15.881Z,3.37
2018-08-25T21:48:44.099Z,6.50
2018-08-25T21:51:12.469Z,2.87
2018-08-25T21:53:40.959Z,2.60
2018-08-25T21:56:09.360Z,2.60
2018-08-25T21:58:37.567Z,2.40
2018-08-25T22:01:05.903Z,2.27
2018-08-25T22:03:34.667Z,3.37
2018-08-25T22:06:02.903Z,2.30
2018-08-25T22:08:31.107Z,1.57
2018-08-25T22:10:59.444Z,1.87
2018-08-25T22:13:27.755Z,1.93
2018-08-25T22:15:56.127Z,1.40
2018-08-25T22:18:24.332Z,1.90
2018-08-25T22:20:52.664Z,3.03
2018-08-25T22:23:20.951Z,1.50
2018-08-25T22:25:49.244Z,1.70
2018-08-25T22:28:17.442Z,1.90
2018-08-25T22:30:45.633Z,2.13
2018-08-25T22:33:13.780Z,1.37
2018-08-25T22:35:42.072Z,1.83
2018-08-25T22:38:10.290Z,1.70
2018-08-25T22:40:38.608Z,1.80
2018-08-25T22:43:06.906Z,1.47
2018-08-25T22:45:35.154Z,2.40
2018-08-25T22:48:03.469Z,2.37
2018-08-25T22:50:33.178Z,1.83
2018-08-25T22:53:01.440Z,2.43
2018-08-25T22:55:29.700Z,1.70
2018-08-25T22:57:57.968Z,1.20
2018-08-25T23:00:26.220Z,1.70
2018-08-25T23:02:54.443Z,1.50
2018-08-25T23:05:22.725Z,2.13
2018-08-25T23:07:50.988Z,1.50
2018-08-25T23:10:19.252Z,1.83
2018-08-25T23:12:47.441Z,1.60
2018-08-25T23:15:15.587Z,2.67
2018-08-25T23:17:43.813Z,2.47
2018-08-25T23:20:11.917Z,1.73
2018-08-25T23:22:39.984Z,1.20
2018-08-25T23:25:08.250Z,1.70
2018-08-25T23:27:36.407Z,1.43
2018-08-25T23:30:04.853Z,2.40
2018-08-25T23:32:33.059Z,1.60
2018-08-25T23:35:01.918Z,1.93
2018-08-25T23:37:32.795Z,2.80
2018-08-25T23:40:01.542Z,1.47
2018-08-25T23:45:14.755Z,1.63
2018-08-25T23:47:42.975Z,1.83
2018-08-25T23:50:11.185Z,1.57
2018-08-25T23:52:39.961Z,1.53
2018-08-25T23:55:08.289Z,1.30
2018-08-25T23:57:36.539Z,2.50
